Pagina principală
METAR-TAF:

METAR-TAF

Aeroporturi :

Baia Mare, România

Aeroportul Internațional Baia Mare

Latitudine: 47-40N, longitudine: 023-35E, elevație: 218 m

Observații meteo curente

Raportul a fost făcut în urmă cu 25 de minute, la 06:00 UTC
Temperatură
Presiune 1016 hPa

METAR: LRBM 220600Z AUTO /////KT //// SCT001/// BKN180/// ///// Q1016

Ora: 09:25 (06:25 UTC)

Prognoză

Raportul a fost făcut în urmă cu 16 ore și 25 de minute, la 14:00 UTC
Prognoză valabilă de la 21 ora 15 UTC la 21 ora 24 UTC
Vânt 4 kt din direcții variabile
Vizibilitate de 10 km sau mai mult
nu există nori sub 1.500 m și nici cumulonimbus
Temporar
de la 21 ora 15 UTC la 21 ora 20 UTC
Vizibilitate: 5000 m
Nori fragmentați la o înălțime de 1500 picior
Total acoperit la o înălțime de 3500 picior
ploaie slabă, aer cețos

TAF: LRBM 211400Z 2115/2124 VRB04KT CAVOK TEMPO 2115/2120 5000 -RA BR BKN015 OVC035

Observații și prognoze meteo pentru peste 4.000 de aeroporturi (rapoarte METAR și TAF).

Stațiile disponibile sunt reprezentate pe hartă prin puncte galbene și roșii.

Țineți indicatorul mouse-ului pe punctul dorit pentru a vedea denumirea stației.

Apoi, faceți clic pentru a vedea observațiile și prognozele meteorologice.

Pentru a schimba harta: Pentru mărire, faceți clic pe butoanele verzi cu cruce neagră; pentru micșorare, pe butonul verde cu o liniuță; pentru hărți învecinate, pe săgețile verzi.


METAR-TAF: